Time;durP1;ratioP1;P1;durP2;ratioP2;P2;SDS_P1;SDS_P2;PMS_P1;PMS_P2;Temp;Humidity;BMP_temperature;BMP_pressure;BME280_temperature;BME280_humidity;BME280_pressure;Samples;Min_cycle;Max_cycle;Signal;HPM_P1;HPM_P2
2021/12/05 00:20:31;;;;;;;12.43;5.10;;;20.60;89.70;;;;;;5071298;28;20032;-56
2021/12/05 00:22:23;;;;;;;13.75;8.07;;;20.40;86.50;;;;;;5063538;28;20029;-61
2021/12/05 00:24:55;;;;;;;11.70;7.90;;;20.40;89.00;;;;;;5069999;28;20103;-53
2021/12/05 00:27:29;;;;;;;13.90;6.47;;;20.60;90.30;;;;;;5070783;28;20033;-59
2021/12/05 00:40:59;;;;;;;12.75;4.18;;;20.70;87.50;;;;;;5072137;28;20024;-60
2021/12/05 01:16:09;;;;;;;13.52;3.97;;;20.90;86.60;;;;;;5072149;28;20080;-61
2021/12/05 01:18:38;;;;;;;10.55;4.60;;;20.80;86.60;;;;;;5075186;28;20458;-60
2021/12/05 01:21:13;;;;;;;9.15;2.90;;;21.20;87.20;;;;;;5075156;28;20063;-59
2021/12/05 01:24:11;;;;;;;11.93;3.25;;;21.00;85.40;;;;;;5074539;28;20021;-59
2021/12/05 01:35:25;;;;;;;8.10;3.10;;;20.90;86.30;;;;;;5075698;28;20115;-50
2021/12/05 01:38:11;;;;;;;5.18;2.53;;;21.00;86.20;;;;;;5075126;28;20028;-54
2021/12/05 01:40:55;;;;;;;7.30;2.97;;;21.20;86.00;;;;;;5075638;28;20017;-53
2021/12/05 01:52:10;;;;;;;8.45;3.05;;;21.30;85.00;;;;;;5069256;28;20098;-53
2021/12/05 01:57:32;;;;;;;8.35;2.80;;;21.40;84.80;;;;;;5071436;28;20782;-56
2021/12/05 02:10:57;;;;;;;14.10;3.72;;;21.00;83.10;;;;;;5068682;28;20097;-61
2021/12/05 02:35:42;;;;;;;8.75;4.03;;;21.30;79.40;;;;;;5073885;28;20041;-58
2021/12/05 02:41:08;;;;;;;18.92;8.38;;;21.00;79.50;;;;;;5074287;28;20025;-63
2021/12/05 02:43:43;;;;;;;13.70;6.82;;;20.80;79.40;;;;;;5073977;28;20096;-64
2021/12/05 02:46:14;;;;;;;11.48;5.43;;;20.90;81.80;;;;;;5073667;28;20404;-66
2021/12/05 02:48:43;;;;;;;12.93;6.38;;;20.90;79.00;;;;;;5073681;28;20024;-61
2021/12/05 02:51:15;;;;;;;14.48;4.63;;;20.80;78.10;;;;;;5073608;28;20038;-59
2021/12/05 02:53:48;;;;;;;12.13;5.88;;;20.80;83.30;;;;;;5073534;28;20055;-63
2021/12/05 02:56:17;;;;;;;24.60;18.73;;;20.80;82.00;;;;;;5073529;28;20478;-63
2021/12/05 02:58:50;;;;;;;157.25;124.30;;;21.10;78.90;;;;;;5073551;28;20526;-61
2021/12/05 03:01:39;;;;;;;19.13;10.40;;;20.90;84.60;;;;;;5073493;28;20032;-67
2021/12/05 03:04:08;;;;;;;14.88;9.98;;;21.00;82.40;;;;;;5072198;28;20097;-58
2021/12/05 03:06:38;;;;;;;23.25;11.85;;;21.10;84.40;;;;;;5072162;28;20468;-65
2021/12/05 03:09:14;;;;;;;56.95;48.28;;;21.00;78.20;;;;;;5073369;28;20036;-55
2021/12/05 03:11:43;;;;;;;21.25;12.20;;;21.10;84.10;;;;;;5073159;28;20463;-65
2021/12/05 03:14:10;;;;;;;17.45;10.02;;;21.30;78.70;;;;;;5073002;28;20046;-58
2021/12/05 03:16:40;;;;;;;28.08;20.25;;;21.30;83.20;;;;;;5073351;28;20463;-62
2021/12/05 03:19:08;;;;;;;35.63;27.92;;;21.40;80.20;;;;;;5073001;28;20038;-61
2021/12/05 03:21:37;;;;;;;23.88;16.27;;;21.50;83.80;;;;;;5073041;28;20033;-53
2021/12/05 03:24:06;;;;;;;23.50;18.38;;;21.50;83.60;;;;;;5072436;28;20100;-56
2021/12/05 03:26:36;;;;;;;13.43;8.25;;;21.60;83.60;;;;;;5072694;28;20032;-51
2021/12/05 03:29:06;;;;;;;14.25;5.13;;;21.70;81.20;;;;;;5071879;28;20074;-52
2021/12/05 03:31:33;;;;;;;12.80;7.13;;;21.80;81.00;;;;;;5073097;28;20016;-56
2021/12/05 03:34:03;;;;;;;10.38;4.60;;;21.80;80.70;;;;;;5072283;28;20396;-56
2021/12/05 03:36:31;;;;;;;17.38;10.93;;;21.80;80.90;;;;;;5072865;28;20048;-58
2021/12/05 03:38:59;;;;;;;9.90;3.65;;;21.80;80.40;;;;;;5072856;28;20146;-54
2021/12/05 03:41:26;;;;;;;22.98;7.30;;;21.80;79.70;;;;;;5072611;28;20027;-53
2021/12/05 03:43:57;;;;;;;35.05;21.88;;;21.80;79.00;;;;;;5071285;28;20028;-54
2021/12/05 03:46:26;;;;;;;31.95;23.67;;;21.80;80.10;;;;;;5073089;28;20051;-56
2021/12/05 03:48:59;;;;;;;14.13;8.13;;;21.80;78.40;;;;;;5072666;28;20021;-56
2021/12/05 03:51:30;;;;;;;13.32;5.85;;;21.70;79.40;;;;;;5072575;28;20031;-55
2021/12/05 03:53:57;;;;;;;16.92;5.25;;;21.80;78.70;;;;;;5072123;28;20040;-51
2021/12/05 03:56:25;;;;;;;24.17;5.20;;;21.80;78.70;;;;;;5072546;28;20033;-52
2021/12/05 03:58:54;;;;;;;19.70;3.10;;;21.70;77.50;;;;;;5072499;28;20037;-66
2021/12/05 04:01:25;;;;;;;11.10;2.85;;;21.80;77.10;;;;;;5072330;28;20047;-66
2021/12/05 04:03:54;;;;;;;11.23;3.17;;;21.80;76.30;;;;;;5072040;28;20017;-67
2021/12/05 04:06:25;;;;;;;6.65;2.22;;;21.80;77.50;;;;;;5072856;28;20028;-64
2021/12/05 04:08:55;;;;;;;10.68;2.42;;;21.80;77.30;;;;;;5072635;28;20489;-66
2021/12/05 04:11:29;;;;;;;14.93;2.63;;;21.80;76.60;;;;;;5072088;28;20040;-64
2021/12/05 04:13:57;;;;;;;14.43;2.80;;;21.80;77.00;;;;;;5071873;28;20025;-66
2021/12/05 04:16:25;;;;;;;8.20;2.03;;;21.90;77.90;;;;;;5076250;28;20479;-67
2021/12/05 04:18:53;;;;;;;11.55;2.38;;;21.90;77.60;;;;;;5075055;28;20074;-66
2021/12/05 04:21:21;;;;;;;9.90;2.53;;;22.00;77.80;;;;;;5076579;28;20368;-66
2021/12/05 04:23:49;;;;;;;9.55;2.70;;;22.00;78.00;;;;;;5076520;28;20054;-65
2021/12/05 04:26:18;;;;;;;7.95;1.92;;;22.00;75.50;;;;;;5076332;28;20493;-66
2021/12/05 04:28:46;;;;;;;9.45;1.85;;;21.90;74.90;;;;;;5075276;28;20024;-63
2021/12/05 04:31:44;;;;;;;9.65;2.63;;;21.90;76.70;;;;;;5076875;28;20048;-64
2021/12/05 04:34:12;;;;;;;13.70;2.38;;;22.00;76.30;;;;;;5076344;28;20386;-65
2021/12/05 04:36:41;;;;;;;13.93;2.38;;;21.90;76.00;;;;;;5076554;28;20078;-65
2021/12/05 04:39:12;;;;;;;14.68;3.25;;;21.90;74.90;;;;;;5076339;28;20024;-68
2021/12/05 04:41:41;;;;;;;10.57;1.60;;;21.90;76.50;;;;;;5076654;28;20026;-65
2021/12/05 04:44:09;;;;;;;12.13;1.77;;;22.00;77.20;;;;;;5076162;28;20416;-63
2021/12/05 04:46:37;;;;;;;12.07;1.83;;;22.00;76.40;;;;;;5075869;28;20017;-66
2021/12/05 04:49:06;;;;;;;38.05;3.45;;;22.00;75.70;;;;;;5074281;28;20055;-64
2021/12/05 04:51:38;;;;;;;8.88;1.83;;;22.00;75.30;;;;;;5075606;28;20017;-63
2021/12/05 04:54:06;;;;;;;;;;;22.00;77.40;;;;;;5075394;28;20393;-61
2021/12/05 04:56:34;;;;;;;10.13;2.25;;;22.00;76.00;;;;;;5075599;28;20000;-64
2021/12/05 04:59:04;;;;;;;25.20;3.22;;;22.00;72.70;;;;;;5075518;28;20056;-66
2021/12/05 05:01:32;;;;;;;11.57;2.42;;;21.90;73.80;;;;;;5075809;28;20078;-64
2021/12/05 05:04:00;;;;;;;13.98;2.67;;;22.00;75.20;;;;;;5067736;28;20471;-59
2021/12/05 05:06:28;;;;;;;15.35;2.30;;;22.10;75.30;;;;;;5073174;28;20091;-62
2021/12/05 05:08:56;;;;;;;9.52;2.20;;;22.00;70.90;;;;;;5073356;28;20468;-60
2021/12/05 05:11:25;;;;;;;7.32;1.60;;;22.00;73.60;;;;;;5072847;28;20039;-54
2021/12/05 05:13:53;;;;;;;6.13;1.77;;;22.00;73.40;;;;;;5071578;28;20032;-58
2021/12/05 05:16:23;;;;;;;7.75;1.90;;;22.00;73.80;;;;;;5073093;28;20052;-56
2021/12/05 05:18:57;;;;;;;7.30;1.75;;;21.90;73.80;;;;;;5072174;28;20096;-57
2021/12/05 05:24:28;;;;;;;8.60;1.70;;;21.90;74.50;;;;;;5071266;28;20032;-63
2021/12/05 05:45:57;;;;;;;8.57;1.73;;;21.80;74.70;;;;;;5071742;28;20094;-59
2021/12/05 05:48:39;;;;;;;5.55;1.80;;;21.80;74.70;;;;;;5068834;28;20027;-61
2021/12/05 05:51:07;;;;;;;;;;;21.80;74.40;;;;;;5071194;28;20107;-58
2021/12/05 05:53:34;;;;;;;6.57;1.65;;;21.80;74.50;;;;;;5068540;28;19956;-58
2021/12/05 05:56:03;;;;;;;7.80;1.67;;;21.70;74.50;;;;;;5071496;28;20032;-55
2021/12/05 05:58:42;;;;;;;4.72;1.58;;;21.70;74.40;;;;;;5071647;28;20025;-57
2021/12/05 06:01:19;;;;;;;4.97;1.52;;;21.60;73.40;;;;;;5071685;28;20029;-59
2021/12/05 06:03:47;;;;;;;4.13;1.90;;;21.60;74.40;;;;;;5068082;28;20035;-61
2021/12/05 06:06:16;;;;;;;4.82;1.40;;;21.60;74.70;;;;;;5068739;28;20033;-57
2021/12/05 06:08:45;;;;;;;5.65;1.30;;;21.70;74.60;;;;;;5071657;28;20072;-55
2021/12/05 06:11:17;;;;;;;3.70;1.30;;;21.70;74.20;;;;;;5071285;28;20024;-58
2021/12/05 06:13:46;;;;;;;11.85;1.90;;;21.70;74.20;;;;;;5067651;28;20032;-57
2021/12/05 06:16:16;;;;;;;6.72;1.80;;;21.60;74.10;;;;;;5070573;28;20394;-54
2021/12/05 06:18:44;;;;;;;4.68;1.52;;;21.60;74.00;;;;;;5070506;28;20029;-60
2021/12/05 06:21:13;;;;;;;5.55;1.42;;;21.60;74.10;;;;;;5070950;28;20083;-54
2021/12/05 06:23:41;;;;;;;7.78;1.92;;;21.60;73.50;;;;;;5068045;28;20545;-51
2021/12/05 06:26:11;;;;;;;5.18;1.45;;;21.50;73.90;;;;;;5071149;28;20081;-55
2021/12/05 06:28:44;;;;;;;6.10;1.55;;;21.50;73.80;;;;;;5069466;28;20040;-55
2021/12/05 06:31:27;;;;;;;3.50;1.77;;;21.50;73.80;;;;;;5068100;28;20024;-54
2021/12/05 06:37:13;;;;;;;7.68;1.52;;;21.50;73.60;;;;;;5071853;28;19911;-56
2021/12/05 06:42:51;;;;;;;4.65;1.48;;;21.50;73.50;;;;;;5065530;28;20396;-60
2021/12/05 06:48:04;;;;;;;4.80;1.40;;;21.50;73.60;;;;;;5068384;28;20027;-54
2021/12/05 06:50:31;;;;;;;2.72;1.08;;;21.50;73.70;;;;;;5070181;28;20032;-57
2021/12/05 06:52:59;;;;;;;6.32;1.48;;;21.50;73.60;;;;;;5067302;28;20040;-59
2021/12/05 06:55:26;;;;;;;3.90;1.15;;;21.40;73.40;;;;;;5069714;28;20056;-54
2021/12/05 06:57:54;;;;;;;5.65;1.38;;;21.40;73.20;;;;;;5070206;28;20025;-59
2021/12/05 07:00:26;;;;;;;3.33;1.13;;;21.40;73.30;;;;;;5070396;28;20024;-59
2021/12/05 07:02:53;;;;;;;6.65;1.75;;;21.40;73.20;;;;;;5066841;28;20017;-54
2021/12/05 07:07:51;;;;;;;8.98;2.03;;;21.40;72.70;;;;;;5066997;28;20332;-51
2021/12/05 07:10:19;;;;;;;5.03;1.98;;;21.40;72.80;;;;;;5066744;28;20418;-53
2021/12/05 07:26:20;;;;;;;5.82;1.30;;;21.40;72.30;;;;;;5070014;28;20044;-55
2021/12/05 07:42:38;;;;;;;7.03;1.73;;;21.40;72.40;;;;;;5062160;28;20071;-56
2021/12/05 07:45:07;;;;;;;5.38;1.63;;;21.40;72.30;;;;;;5067183;28;20036;-58
2021/12/05 07:47:38;;;;;;;7.05;1.90;;;21.40;72.40;;;;;;5067937;28;20118;-57
2021/12/05 07:50:10;;;;;;;5.43;1.67;;;21.40;72.50;;;;;;5069080;28;20029;-54
2021/12/05 07:52:50;;;;;;;4.80;1.77;;;21.40;72.40;;;;;;5065521;28;20025;-57
2021/12/05 07:55:23;;;;;;;9.57;1.80;;;21.40;72.50;;;;;;5069522;28;20147;-56
2021/12/05 07:58:09;;;;;;;6.07;1.70;;;21.40;72.30;;;;;;5069289;28;20025;-57
2021/12/05 08:00:54;;;;;;;5.57;1.85;;;21.40;72.30;;;;;;5066831;28;20060;-56
2021/12/05 08:14:40;;;;;;;3.38;1.40;;;21.30;72.00;;;;;;5070078;28;20173;-52
2021/12/05 08:17:15;;;;;;;5.63;1.75;;;21.30;71.80;;;;;;5069716;28;20032;-54
2021/12/05 08:19:42;;;;;;;5.10;1.75;;;21.30;72.50;;;;;;5068510;28;20035;-59
2021/12/05 08:22:10;;;;;;;4.95;1.52;;;21.30;71.80;;;;;;5066589;28;20514;-53
2021/12/05 08:24:40;;;;;;;6.72;2.20;;;21.30;71.60;;;;;;5069526;28;20101;-58
2021/12/05 08:27:12;;;;;;;7.88;2.90;;;21.30;71.70;;;;;;5065953;28;20189;-52
2021/12/05 08:29:50;;;;;;;13.27;5.03;;;21.20;71.60;;;;;;5065676;28;20142;-56
2021/12/05 08:35:20;;;;;;;24.40;9.45;;;21.20;72.10;;;;;;5069721;28;20221;-57
2021/12/05 08:38:41;;;;;;;28.58;12.80;;;21.20;72.40;;;;;;5069306;28;20029;-57
2021/12/05 08:43:38;;;;;;;44.10;20.63;;;21.20;71.90;;;;;;5065672;28;20067;-56
2021/12/05 09:22:27;;;;;;;50.25;21.92;;;21.20;71.50;;;;;;5075518;28;20083;-62
2021/12/05 09:30:40;;;;;;;40.50;21.38;;;21.10;71.70;;;;;;5071019;28;20113;-59
2021/12/05 10:11:31;;;;;;;30.83;16.48;;;21.10;71.30;;;;;;5071878;28;20021;-56
2021/12/05 10:16:54;;;;;;;30.95;15.93;;;21.10;71.50;;;;;;5072170;28;20033;-54
2021/12/05 10:33:51;;;;;;;32.63;14.15;;;21.10;71.20;;;;;;5067835;28;20039;-51
2021/12/05 10:36:25;;;;;;;28.15;13.05;;;21.10;71.30;;;;;;5070856;28;20036;-54
2021/12/05 10:39:00;;;;;;;26.30;13.48;;;21.10;71.40;;;;;;5067901;28;20024;-53
2021/12/05 10:44:07;;;;;;;25.02;12.68;;;21.10;71.50;;;;;;5066995;28;20056;-59
2021/12/05 10:46:37;;;;;;;28.58;12.48;;;21.10;71.40;;;;;;5071429;28;20025;-57
2021/12/05 10:49:08;;;;;;;21.38;11.13;;;21.10;71.30;;;;;;5070516;28;20060;-54
2021/12/05 10:51:57;;;;;;;22.70;11.20;;;21.10;71.40;;;;;;5070628;28;20471;-55
2021/12/05 10:54:28;;;;;;;23.00;10.95;;;21.10;71.20;;;;;;5066736;28;20052;-57
2021/12/05 10:57:01;;;;;;;20.38;10.23;;;21.10;71.20;;;;;;5067491;28;20021;-56
2021/12/05 10:59:39;;;;;;;20.42;10.52;;;21.10;71.10;;;;;;5067866;28;20492;-54
2021/12/05 11:02:14;;;;;;;23.33;10.80;;;21.10;71.20;;;;;;5068697;28;20517;-53
2021/12/05 11:04:51;;;;;;;19.23;9.88;;;21.10;71.30;;;;;;5069994;28;20074;-59
2021/12/05 11:07:21;;;;;;;27.42;10.88;;;21.10;71.20;;;;;;5070457;28;20101;-59
2021/12/05 11:09:57;;;;;;;20.05;9.38;;;21.00;71.40;;;;;;5070884;28;20028;-59
2021/12/05 11:12:31;;;;;;;19.85;9.40;;;21.00;71.30;;;;;;5067117;28;20033;-55
2021/12/05 11:15:15;;;;;;;22.05;9.70;;;21.00;71.30;;;;;;5070299;28;20514;-61
2021/12/05 11:17:47;;;;;;;18.15;8.50;;;21.00;71.40;;;;;;5068914;28;20487;-61
2021/12/05 11:20:45;;;;;;;18.73;9.48;;;21.00;71.50;;;;;;5073184;28;20552;-59
2021/12/05 11:23:18;;;;;;;17.40;9.20;;;21.00;71.50;;;;;;5068495;28;20037;-61
2021/12/05 11:25:46;;;;;;;18.58;9.35;;;21.00;71.60;;;;;;5072688;28;20023;-55
2021/12/05 11:28:24;;;;;;;18.40;9.25;;;20.90;71.70;;;;;;5072864;28;20032;-54
2021/12/05 11:30:52;;;;;;;19.08;9.65;;;20.90;71.70;;;;;;5073406;28;20514;-56
2021/12/05 11:33:23;;;;;;;16.98;8.73;;;21.00;71.90;;;;;;5073370;28;20024;-55
2021/12/05 11:35:54;;;;;;;20.65;9.60;;;20.90;71.90;;;;;;5073390;28;20479;-59
2021/12/05 11:38:25;;;;;;;17.25;8.75;;;20.90;71.90;;;;;;5071845;28;20021;-59
2021/12/05 11:40:52;;;;;;;17.92;8.45;;;20.90;72.10;;;;;;5072964;28;20028;-53
2021/12/05 11:43:26;;;;;;;20.02;9.77;;;20.90;72.90;;;;;;5073171;28;20376;-61
2021/12/05 11:46:17;;;;;;;14.38;8.82;;;20.90;72.40;;;;;;5070581;28;20029;-56
2021/12/05 11:48:50;;;;;;;18.48;8.77;;;20.80;72.50;;;;;;5072815;28;20028;-57
2021/12/05 11:51:27;;;;;;;16.52;8.35;;;20.80;73.20;;;;;;5073031;28;20432;-60
2021/12/05 11:54:26;;;;;;;14.48;8.13;;;20.80;72.70;;;;;;5072337;28;20436;-56
2021/12/05 11:57:03;;;;;;;20.55;8.68;;;20.80;72.80;;;;;;5073065;28;20126;-57
2021/12/05 11:59:43;;;;;;;18.70;9.70;;;20.80;73.00;;;;;;5072799;28;20035;-58
2021/12/05 12:02:18;;;;;;;19.90;8.77;;;20.80;73.10;;;;;;5072937;28;20036;-57
2021/12/05 12:05:14;;;;;;;19.05;9.45;;;20.80;73.10;;;;;;5071626;28;20479;-52
2021/12/05 12:08:07;;;;;;;14.88;8.07;;;20.80;73.20;;;;;;5072588;28;20380;-54
2021/12/05 12:10:44;;;;;;;16.83;7.78;;;20.80;73.30;;;;;;5072555;28;20032;-55
2021/12/05 12:13:19;;;;;;;20.55;8.32;;;20.80;73.50;;;;;;5072479;28;20029;-58
2021/12/05 12:15:58;;;;;;;17.25;8.40;;;20.70;73.60;;;;;;5072460;28;20067;-57
2021/12/05 12:18:31;;;;;;;16.75;7.97;;;20.80;73.70;;;;;;5072583;28;20031;-57
2021/12/05 12:21:05;;;;;;;15.65;8.07;;;20.70;73.70;;;;;;5072643;28;20032;-57
2021/12/05 12:23:33;;;;;;;14.50;7.30;;;20.70;73.80;;;;;;5072174;28;20032;-58
2021/12/05 12:26:03;;;;;;;15.25;8.50;;;20.70;73.90;;;;;;5072459;28;20020;-57
2021/12/05 12:28:31;;;;;;;15.93;8.63;;;20.70;73.90;;;;;;5072850;28;20028;-58
2021/12/05 12:31:06;;;;;;;16.25;8.32;;;20.70;74.00;;;;;;5072732;28;20467;-58
2021/12/05 12:33:58;;;;;;;19.38;8.93;;;20.70;74.10;;;;;;5072472;28;20059;-57
2021/12/05 12:36:42;;;;;;;21.10;8.45;;;20.70;74.20;;;;;;5074429;28;20442;-59
2021/12/05 12:39:20;;;;;;;15.93;7.70;;;20.70;74.40;;;;;;5075589;28;20515;-58
2021/12/05 12:42:13;;;;;;;13.60;6.47;;;20.70;74.50;;;;;;5076437;28;20119;-56
2021/12/05 12:45:00;;;;;;;12.07;5.82;;;20.70;74.70;;;;;;5076171;28;20091;-58
2021/12/05 12:47:43;;;;;;;16.48;6.78;;;20.60;74.60;;;;;;5076519;28;20055;-57
2021/12/05 12:50:29;;;;;;;10.70;5.75;;;20.70;74.80;;;;;;5068008;28;20111;-60
2021/12/05 12:53:20;;;;;;;13.00;6.80;;;20.60;74.60;;;;;;5070839;28;20169;-58
2021/12/05 12:55:57;;;;;;;10.98;5.90;;;20.60;74.60;;;;;;5072276;28;20076;-50
2021/12/05 12:58:48;;;;;;;13.40;5.53;;;20.60;74.70;;;;;;5072243;28;20033;-60
2021/12/05 13:12:50;;;;;;;10.63;5.90;;;20.60;74.70;;;;;;5075626;28;20031;-55
2021/12/05 13:16:03;;;;;;;11.63;5.80;;;20.50;74.70;;;;;;5075188;28;20079;-58
2021/12/05 13:18:36;;;;;;;9.95;5.32;;;20.60;74.70;;;;;;5033659;28;20022;-57
2021/12/05 13:21:26;;;;;;;9.68;5.15;;;20.50;74.70;;;;;;5068813;28;20111;-58
2021/12/05 13:23:54;;;;;;;11.43;5.25;;;20.50;74.60;;;;;;5075521;28;20029;-60
2021/12/05 13:26:39;;;;;;;11.80;5.00;;;20.50;74.70;;;;;;5075564;28;20101;-60
2021/12/05 13:29:23;;;;;;;12.80;6.05;;;20.50;74.70;;;;;;5067934;28;20104;-52
2021/12/05 13:32:06;;;;;;;11.35;5.47;;;20.50;74.70;;;;;;5070819;28;20483;-54
2021/12/05 13:34:43;;;;;;;11.65;5.40;;;20.50;74.80;;;;;;5071431;28;20518;-58
2021/12/05 13:37:13;;;;;;;10.80;4.95;;;20.50;74.80;;;;;;5070343;28;20028;-54
2021/12/05 13:39:47;;;;;;;10.93;4.63;;;20.50;74.80;;;;;;5072422;28;20028;-59
2021/12/05 13:42:22;;;;;;;10.20;4.50;;;20.50;74.80;;;;;;5069331;28;20033;-56
2021/12/05 13:45:04;;;;;;;10.20;4.78;;;20.50;74.80;;;;;;5068549;28;20420;-56
2021/12/05 13:47:51;;;;;;;10.82;4.43;;;20.50;74.80;;;;;;5071988;28;20033;-51
2021/12/05 13:50:19;;;;;;;9.45;4.70;;;20.40;74.80;;;;;;5071535;28;20017;-55
2021/12/05 13:52:52;;;;;;;13.77;4.85;;;20.50;74.90;;;;;;5072747;28;20027;-56
2021/12/05 13:55:43;;;;;;;11.60;5.35;;;20.50;74.90;;;;;;5064660;28;20054;-56
2021/12/05 13:58:46;;;;;;;9.38;4.57;;;20.40;74.90;;;;;;5071842;28;20029;-58
2021/12/05 14:01:22;;;;;;;9.10;3.88;;;20.40;74.90;;;;;;5068218;28;20156;-57
2021/12/05 14:03:57;;;;;;;9.13;4.53;;;20.40;74.90;;;;;;5065969;28;20464;-54
2021/12/05 14:06:42;;;;;;;9.60;4.00;;;20.40;75.00;;;;;;5070698;28;20491;-56
2021/12/05 14:09:23;;;;;;;11.13;4.40;;;20.40;74.90;;;;;;5072172;28;20028;-59
2021/12/05 14:12:11;;;;;;;9.65;4.72;;;20.40;75.00;;;;;;5071553;28;20017;-52
2021/12/05 14:14:54;;;;;;;9.23;4.10;;;20.40;75.00;;;;;;5067864;28;20089;-53
2021/12/05 14:17:23;;;;;;;8.07;4.38;;;20.40;75.00;;;;;;5068788;28;20029;-52
2021/12/05 14:20:11;;;;;;;7.97;3.88;;;20.40;75.10;;;;;;5068612;28;20443;-56
2021/12/05 14:22:41;;;;;;;11.10;4.30;;;20.40;75.00;;;;;;5071406;28;20368;-58
2021/12/05 14:25:21;;;;;;;8.20;4.10;;;20.40;75.10;;;;;;5069050;28;20099;-57
2021/12/05 14:27:53;;;;;;;9.95;4.22;;;20.30;75.10;;;;;;5070094;28;20029;-55
2021/12/05 14:30:24;;;;;;;9.68;4.32;;;20.40;75.20;;;;;;5067882;28;20024;-57
2021/12/05 14:32:57;;;;;;;9.05;3.88;;;20.40;75.10;;;;;;5066926;28;20025;-57
2021/12/05 14:35:37;;;;;;;7.90;3.85;;;20.30;75.10;;;;;;5067758;28;20036;-59
2021/12/05 14:38:07;;;;;;;10.15;4.20;;;20.30;75.20;;;;;;5069060;28;20502;-56
2021/12/05 14:40:36;;;;;;;7.38;3.50;;;20.40;75.20;;;;;;5071912;28;20032;-53
2021/12/05 14:43:08;;;;;;;9.85;4.50;;;20.40;75.20;;;;;;5071111;28;20071;-57
2021/12/05 14:45:39;;;;;;;7.82;3.63;;;20.30;75.20;;;;;;5068485;28;20028;-55
2021/12/05 14:48:10;;;;;;;7.97;3.63;;;20.30;75.30;;;;;;5071774;28;20032;-58
2021/12/05 14:50:40;;;;;;;8.45;3.38;;;20.30;75.30;;;;;;5068484;28;20056;-53
2021/12/05 14:53:10;;;;;;;7.90;3.05;;;20.30;75.30;;;;;;5071064;28;20107;-54
2021/12/05 14:55:38;;;;;;;5.80;3.55;;;20.30;75.30;;;;;;5068234;28;20047;-52
2021/12/05 14:58:14;;;;;;;7.13;3.50;;;20.30;75.40;;;;;;5070830;28;20025;-57
2021/12/05 15:00:46;;;;;;;7.50;3.60;;;20.30;75.40;;;;;;5067511;28;20082;-49
2021/12/05 15:03:21;;;;;;;6.80;3.13;;;20.30;75.40;;;;;;5070536;28;20024;-56
2021/12/05 15:05:53;;;;;;;8.75;3.50;;;20.30;75.50;;;;;;5066796;28;20569;-53
2021/12/05 15:08:23;;;;;;;5.75;3.10;;;20.30;75.50;;;;;;5071308;28;20029;-54
2021/12/05 15:11:00;;;;;;;8.60;3.80;;;20.30;75.50;;;;;;5070492;28;20037;-52
2021/12/05 15:13:27;;;;;;;6.32;3.00;;;20.30;75.50;;;;;;5070841;28;20096;-53
2021/12/05 15:15:55;;;;;;;8.40;3.20;;;20.20;75.50;;;;;;5067423;28;20119;-54
2021/12/05 15:18:29;;;;;;;8.25;3.55;;;20.20;75.60;;;;;;5070383;28;20025;-50
2021/12/05 15:20:57;;;;;;;6.55;3.00;;;20.30;75.60;;;;;;5070993;28;20390;-50
2021/12/05 15:23:31;;;;;;;7.60;3.40;;;20.20;75.70;;;;;;5070665;28;20020;-55
2021/12/05 15:26:03;;;;;;;9.52;3.35;;;20.20;75.70;;;;;;5067057;28;20025;-59
2021/12/05 15:28:35;;;;;;;7.88;3.70;;;20.20;75.70;;;;;;5070629;28;20487;-50
2021/12/05 15:31:03;;;;;;;5.80;3.00;;;20.20;75.80;;;;;;5070630;28;20032;-53
2021/12/05 15:33:33;;;;;;;7.28;3.13;;;20.20;75.80;;;;;;5069726;28;20028;-54
2021/12/05 15:36:02;;;;;;;9.40;3.38;;;20.20;75.80;;;;;;5068943;28;20055;-55
2021/12/05 15:38:30;;;;;;;6.38;2.97;;;20.20;75.80;;;;;;5073280;28;20020;-54
2021/12/05 15:41:07;;;;;;;8.52;3.10;;;20.20;75.90;;;;;;5073537;28;20024;-57
2021/12/05 15:43:37;;;;;;;6.95;2.75;;;20.20;76.00;;;;;;5073190;28;20025;-60
2021/12/05 15:46:11;;;;;;;5.13;2.63;;;20.20;76.00;;;;;;5073092;28;20441;-59
2021/12/05 15:48:38;;;;;;;5.72;2.70;;;20.20;76.00;;;;;;5073211;28;20174;-59
2021/12/05 15:51:12;;;;;;;5.90;2.72;;;20.20;76.10;;;;;;5073097;28;20115;-59
2021/12/05 15:53:40;;;;;;;6.00;2.72;;;20.10;76.00;;;;;;5072914;28;20471;-56
2021/12/05 15:56:13;;;;;;;6.78;3.22;;;20.20;76.10;;;;;;5072756;28;20032;-58
2021/12/05 15:58:47;;;;;;;7.05;2.83;;;20.10;76.10;;;;;;5072946;28;20028;-59
2021/12/05 16:01:21;;;;;;;5.95;3.10;;;20.10;76.20;;;;;;5073082;28;20032;-56
2021/12/05 16:03:52;;;;;;;5.05;2.70;;;20.10;76.20;;;;;;5072232;28;20379;-59
2021/12/05 16:06:31;;;;;;;7.68;2.83;;;20.20;76.30;;;;;;5073076;28;20494;-60
2021/12/05 16:08:58;;;;;;;8.15;3.05;;;20.10;76.20;;;;;;5072993;28;20477;-58
2021/12/05 16:11:26;;;;;;;7.07;2.80;;;20.20;76.30;;;;;;5075249;28;20025;-60
2021/12/05 16:13:56;;;;;;;4.55;2.42;;;20.10;76.30;;;;;;5076499;28;20032;-59
2021/12/05 16:16:29;;;;;;;5.60;2.80;;;20.10;76.30;;;;;;5077107;28;20104;-58
2021/12/05 16:19:00;;;;;;;7.82;2.92;;;20.10;76.30;;;;;;5076990;28;20385;-59
2021/12/05 16:21:39;;;;;;;7.28;2.67;;;20.20;76.40;;;;;;5077021;28;20031;-57
2021/12/05 16:24:14;;;;;;;6.88;2.45;;;20.20;76.40;;;;;;5076618;28;20497;-59
2021/12/05 16:26:44;;;;;;;6.65;2.65;;;20.20;76.30;;;;;;5077095;28;20024;-60
2021/12/05 16:29:14;;;;;;;6.95;2.90;;;20.20;76.30;;;;;;5076554;28;20024;-58
2021/12/05 16:31:47;;;;;;;6.55;2.60;;;20.20;76.30;;;;;;5076590;28;20025;-58
2021/12/05 16:34:18;;;;;;;5.18;2.53;;;20.10;76.20;;;;;;5076252;28;20505;-58
2021/12/05 16:36:53;;;;;;;7.53;2.58;;;20.10;76.30;;;;;;5076764;28;20039;-57
2021/12/05 16:39:55;;;;;;;5.93;2.60;;;20.10;76.40;;;;;;5076800;28;20029;-57
2021/12/05 16:42:24;;;;;;;8.85;2.38;;;20.10;76.30;;;;;;5076692;28;20029;-59
2021/12/05 16:44:59;;;;;;;5.50;2.40;;;20.10;77.00;;;;;;5076367;28;20033;-59
2021/12/05 16:47:29;;;;;;;5.80;2.72;;;20.10;76.40;;;;;;5076515;28;20372;-57
2021/12/05 16:49:59;;;;;;;4.30;2.05;;;20.10;76.40;;;;;;5076472;28;20029;-56
2021/12/05 16:52:34;;;;;;;3.70;2.08;;;20.10;76.30;;;;;;5076401;28;20031;-59
2021/12/05 16:55:21;;;;;;;3.33;2.10;;;20.20;76.40;;;;;;5076021;28;20049;-59
2021/12/05 16:58:06;;;;;;;5.43;2.03;;;20.10;76.40;;;;;;5076464;28;20027;-59
2021/12/05 17:00:39;;;;;;;5.47;2.20;;;20.20;76.50;;;;;;5076030;28;20028;-60
2021/12/05 17:03:08;;;;;;;5.18;2.17;;;20.10;76.40;;;;;;5076193;28;20028;-58
2021/12/05 17:05:42;;;;;;;7.97;2.40;;;20.20;76.40;;;;;;5076034;28;20467;-58
2021/12/05 17:08:13;;;;;;;6.30;2.55;;;20.10;76.30;;;;;;5075944;28;20471;-57
2021/12/05 17:10:50;;;;;;;4.53;2.33;;;20.10;76.40;;;;;;5076165;28;20020;-59
2021/12/05 17:13:27;;;;;;;4.65;2.30;;;20.10;76.30;;;;;;5074442;28;20395;-57
2021/12/05 17:16:02;;;;;;;5.15;2.40;;;20.20;76.40;;;;;;5075804;28;20111;-58
2021/12/05 17:18:36;;;;;;;4.85;2.10;;;20.10;76.40;;;;;;5075795;28;20056;-58
2021/12/05 17:21:09;;;;;;;6.82;2.40;;;20.20;76.40;;;;;;5075854;28;20032;-58
2021/12/05 17:23:43;;;;;;;3.65;2.17;;;20.10;76.40;;;;;;5073435;28;20029;-54
2021/12/05 17:26:16;;;;;;;3.75;1.92;;;20.10;76.30;;;;;;5075458;28;20082;-59
2021/12/05 17:28:51;;;;;;;6.70;1.90;;;20.10;76.40;;;;;;5075709;28;20021;-58
2021/12/05 17:31:28;;;;;;;5.13;2.45;;;20.10;76.40;;;;;;5076203;28;20028;-56
2021/12/05 17:33:59;;;;;;;5.82;2.13;;;20.20;76.40;;;;;;5074569;28;20056;-61
2021/12/05 17:36:42;;;;;;;5.07;2.03;;;20.20;76.40;;;;;;5074422;28;20058;-57
2021/12/05 17:39:20;;;;;;;6.70;2.42;;;20.20;76.40;;;;;;5075604;28;20021;-58
2021/12/05 17:41:55;;;;;;;6.25;2.10;;;20.10;76.30;;;;;;5075912;28;20032;-57
2021/12/05 17:44:23;;;;;;;5.57;2.00;;;20.10;76.40;;;;;;5075530;28;20032;-58
2021/12/05 17:46:53;;;;;;;5.72;1.90;;;20.10;76.50;;;;;;5075503;28;20483;-57
2021/12/05 17:49:24;;;;;;;4.97;2.28;;;20.20;76.50;;;;;;5075822;28;20020;-58
2021/12/05 17:51:52;;;;;;;4.18;1.88;;;20.20;76.50;;;;;;5075476;28;20029;-56
2021/12/05 17:54:31;;;;;;;4.90;1.92;;;20.10;76.50;;;;;;5075310;28;20049;-57
2021/12/05 17:57:14;;;;;;;3.90;1.85;;;20.20;76.60;;;;;;5074375;28;20501;-60
2021/12/05 18:05:39;;;;;;;4.97;2.13;;;20.10;76.60;;;;;;5061712;28;20048;-59
2021/12/05 18:08:19;;;;;;;5.03;2.28;;;20.10;76.70;;;;;;5072696;28;20467;-59
2021/12/05 18:10:52;;;;;;;5.03;2.03;;;20.10;76.80;;;;;;5074006;28;20399;-60
2021/12/05 18:13:23;;;;;;;4.82;2.17;;;20.10;76.90;;;;;;5074695;28;20055;-57
2021/12/05 18:15:57;;;;;;;4.25;1.83;;;20.10;76.90;;;;;;5074823;28;20034;-55
2021/12/05 18:18:29;;;;;;;6.72;1.92;;;20.10;77.00;;;;;;5074824;28;20032;-57
2021/12/05 18:20:59;;;;;;;4.70;1.80;;;20.10;77.00;;;;;;5073654;28;20025;-56
2021/12/05 18:23:28;;;;;;;5.30;1.58;;;20.10;77.10;;;;;;5074529;28;20126;-58
2021/12/05 18:25:56;;;;;;;5.38;2.35;;;20.10;77.10;;;;;;5074460;28;20059;-59
2021/12/05 18:28:24;;;;;;;5.18;1.90;;;20.10;77.20;;;;;;5074515;28;20415;-59